Página principal
METAR-TAF:

METAR-TAF

Aeroportos :

Aeroporto Internacional de Cartum

Cartum, Sudão

latitude: 15-36N, longitude: 032-33E, altura: 382 m

Observação actual do tempo

O boletim foi feito há 27 minutos, às 06:00 UTC
Vento 10 kt de norte
Temperatura 23°C
Humidade 20%
Pressão 1014 hPa
Visibilidade 10 km ou mais
sem nuvens abaixo de 1500 metros e sem cumulonimbus

METAR: HSSS 150600Z 36010KT CAVOK 23/M01 Q1014 NOSIG

Hora: 09:27 (06:27 UTC)

Previsão

O boletim foi feito há 1 hora e 27 minutos, às 05:00 UTC
Previsão válida de 15 às 06 UTC a 16 às 12 UTC
Vento 8 kt de norte com rajadas de 18 kt
Visibilidade 10 km ou mais
sem nuvens abaixo de 1500 metros e sem cumulonimbus

TAF: HSSS 150500Z 1506/1612 36008G18KT CAVOK

Observações e previsões do tempo de mais de 4000 aeroportos (mensagens METAR e TAF).

As estações disponíveis são os pontos amarelos e vermelhos sobre o mapa.

Mova o rato sobre o mapa para ver o nome da estação.

Depois clique no ponto para visualizar as observações e previsões meteorológicas.

Para alterar o mapa : clique nos botões verdes com uma cruz preta para aumentar o zoom; no botão verde com uma pitada de zoom; ou nas setas verdes para mapas adjacentes.


METAR-TAF: